Time;durP1;ratioP1;P1;durP2;ratioP2;P2;SDS_P1;SDS_P2;PMS_P1;PMS_P2;Temp;Humidity;BMP_temperature;BMP_pressure;BME280_temperature;BME280_humidity;BME280_pressure;Samples;Min_cycle;Max_cycle;Signal;HPM_P1;HPM_P2
2022/09/09 00:01:38;;;;;;;2.23;1.30;;;18.30;99.90;;;;;;6169144;28;20686;-60
2022/09/09 00:04:42;;;;;;;1.73;1.00;;;18.30;99.90;;;;;;6166517;28;20235;-60
2022/09/09 00:07:51;;;;;;;2.33;1.10;;;18.30;99.90;;;;;;6167161;28;20231;-60
2022/09/09 00:11:01;;;;;;;1.10;0.90;;;18.20;99.90;;;;;;6132661;29;20232;-60
2022/09/09 00:14:13;;;;;;;1.87;0.67;;;18.20;99.90;;;;;;6136803;28;20230;-61
2022/09/09 00:17:31;;;;;;;1.70;0.90;;;18.10;99.90;;;;;;6170457;28;20568;-61
2022/09/09 00:20:40;;;;;;;2.83;0.90;;;18.10;99.90;;;;;;6165909;28;20234;-61
2022/09/09 00:23:49;;;;;;;3.53;1.10;;;18.00;99.90;;;;;;6164279;28;20487;-61
2022/09/09 00:26:57;;;;;;;1.23;1.03;;;17.90;99.90;;;;;;6160782;28;20660;-63
2022/09/09 00:30:13;;;;;;;6.03;0.90;;;17.90;99.90;;;;;;6165700;28;20250;-63
2022/09/09 00:33:22;;;;;;;6.50;1.70;;;17.70;99.90;;;;;;6169850;28;20506;-63
2022/09/09 00:36:28;;;;;;;1.03;0.93;;;17.70;99.90;;;;;;6174931;28;20475;-63
2022/09/09 00:39:38;;;;;;;7.50;1.20;;;17.50;99.90;;;;;;6164222;28;20481;-63
2022/09/09 00:42:43;;;;;;;2.20;0.90;;;17.50;99.90;;;;;;6169202;28;20478;-63
2022/09/09 00:46:28;;;;;;;4.83;1.50;;;17.40;99.90;;;;;;6169667;28;20476;-63
2022/09/09 00:49:43;;;;;;;2.53;1.17;;;17.40;99.90;;;;;;6146928;28;20942;-63
2022/09/09 00:52:54;;;;;;;7.50;1.17;;;17.40;99.90;;;;;;6156258;28;20837;-63
2022/09/09 00:56:06;;;;;;;1.40;1.00;;;17.40;99.90;;;;;;6155440;29;20490;-63
2022/09/09 00:59:24;;;;;;;2.57;1.40;;;17.30;99.90;;;;;;6155387;29;20479;-63
2022/09/09 01:02:37;;;;;;;3.57;1.03;;;17.20;99.90;;;;;;6154770;28;20554;-63
2022/09/09 01:05:46;;;;;;;1.90;1.07;;;17.10;99.90;;;;;;6155688;29;20471;-63
2022/09/09 01:09:12;;;;;;;2.77;1.20;;;17.10;99.90;;;;;;6155206;29;20494;-63
2022/09/09 01:12:19;;;;;;;3.90;1.40;;;17.10;99.90;;;;;;6157755;29;20479;-63
2022/09/09 01:15:26;;;;;;;4.50;1.00;;;17.10;99.90;;;;;;6156041;28;20502;-63
2022/09/09 01:18:35;;;;;;;1.43;1.20;;;17.00;99.90;;;;;;6155308;29;20482;-62
2022/09/09 01:21:46;;;;;;;2.13;1.10;;;16.90;99.90;;;;;;6154726;29;20467;-62
2022/09/09 01:25:13;;;;;;;1.13;1.00;;;16.90;99.90;;;;;;6154246;28;20793;-63
2022/09/09 01:28:23;;;;;;;2.87;1.00;;;16.80;99.90;;;;;;6154802;29;20474;-62
2022/09/09 01:31:30;;;;;;;2.57;1.03;;;16.70;99.90;;;;;;6154591;29;20482;-62
2022/09/09 01:34:39;;;;;;;1.37;1.27;;;16.80;99.90;;;;;;6154686;28;20538;-62
2022/09/09 01:37:43;;;;;;;1.43;1.03;;;16.70;99.90;;;;;;6154638;29;20587;-62
2022/09/09 01:40:46;;;;;;;2.17;1.00;;;16.70;99.90;;;;;;6154379;29;20475;-63
2022/09/09 01:43:51;;;;;;;4.30;1.20;;;16.70;99.90;;;;;;6145173;29;20510;-63
2022/09/09 01:46:54;;;;;;;1.20;0.73;;;16.80;99.90;;;;;;6154385;28;20479;-63
2022/09/09 01:49:58;;;;;;;1.87;1.10;;;16.70;99.90;;;;;;6154406;28;20541;-63
2022/09/09 01:53:03;;;;;;;1.90;1.10;;;16.70;99.90;;;;;;6153788;29;20474;-62
2022/09/09 01:56:18;;;;;;;2.27;1.33;;;16.70;99.90;;;;;;6153585;28;20490;-62
2022/09/09 01:59:37;;;;;;;4.70;1.43;;;16.60;99.90;;;;;;6153872;29;20877;-62
2022/09/09 02:02:47;;;;;;;5.60;1.80;;;16.60;99.90;;;;;;6154181;29;20238;-62
2022/09/09 02:05:56;;;;;;;3.40;1.17;;;16.60;99.90;;;;;;6153740;28;20466;-62
2022/09/09 02:09:03;;;;;;;3.20;1.13;;;16.50;99.90;;;;;;6153620;29;20542;-62
2022/09/09 02:12:12;;;;;;;2.80;1.43;;;16.60;99.90;;;;;;6153914;28;20494;-63
2022/09/09 02:15:21;;;;;;;2.10;1.37;;;16.50;99.90;;;;;;6152844;28;20850;-62
2022/09/09 02:18:29;;;;;;;1.40;1.30;;;16.50;99.90;;;;;;6153654;28;20522;-62
2022/09/09 02:21:34;;;;;;;2.83;1.57;;;16.50;99.90;;;;;;6153730;29;20487;-62
2022/09/09 02:24:39;;;;;;;3.27;1.43;;;16.50;99.90;;;;;;6153378;28;20819;-62
2022/09/09 02:27:46;;;;;;;3.00;1.63;;;16.50;99.90;;;;;;6152983;29;20478;-62
2022/09/09 02:30:54;;;;;;;2.17;1.40;;;16.40;99.90;;;;;;6153547;29;20451;-62
2022/09/09 02:34:01;;;;;;;5.70;1.47;;;16.40;99.90;;;;;;6153139;29;20463;-62
2022/09/09 02:37:07;;;;;;;3.13;1.90;;;16.40;99.90;;;;;;6153462;29;20489;-62
2022/09/09 02:40:13;;;;;;;2.63;1.87;;;16.50;99.90;;;;;;6153382;28;20525;-63
2022/09/09 02:43:17;;;;;;;3.33;1.50;;;16.60;99.90;;;;;;6153268;28;20489;-62
2022/09/09 02:46:38;;;;;;;2.43;1.50;;;16.60;99.90;;;;;;6148129;29;20533;-63
2022/09/09 02:49:56;;;;;;;2.20;1.73;;;16.60;99.90;;;;;;6153364;28;20482;-63
2022/09/09 02:53:09;;;;;;;2.70;1.40;;;16.60;99.90;;;;;;6152995;29;20486;-63
2022/09/09 02:56:17;;;;;;;2.50;1.30;;;16.70;99.90;;;;;;6153137;29;20494;-63
2022/09/09 02:59:21;;;;;;;2.87;1.60;;;16.80;99.90;;;;;;6152834;29;20498;-63
2022/09/09 03:02:25;;;;;;;1.90;1.43;;;16.80;99.90;;;;;;6152833;28;21049;-63
2022/09/09 03:05:28;;;;;;;2.83;1.20;;;16.90;99.90;;;;;;6152835;29;20800;-63
2022/09/09 03:08:31;;;;;;;2.67;1.20;;;16.90;99.90;;;;;;6153184;29;21034;-63
2022/09/09 03:11:35;;;;;;;2.50;1.80;;;16.90;99.90;;;;;;6152699;29;20486;-62
2022/09/09 03:14:38;;;;;;;2.13;1.50;;;16.80;99.90;;;;;;6166913;28;20505;-62
2022/09/09 03:17:43;;;;;;;1.60;1.50;;;16.80;99.90;;;;;;6176850;28;20489;-62
2022/09/09 03:20:48;;;;;;;1.40;1.10;;;16.80;99.90;;;;;;6176571;28;20485;-62
2022/09/09 03:23:51;;;;;;;2.50;1.50;;;16.90;99.90;;;;;;6176544;28;20487;-62
2022/09/09 03:26:55;;;;;;;4.87;1.83;;;16.90;99.90;;;;;;6173458;28;20466;-62
2022/09/09 03:29:58;;;;;;;1.70;1.43;;;17.00;99.90;;;;;;6168224;28;20471;-63
2022/09/09 03:33:03;;;;;;;1.77;1.40;;;16.90;99.90;;;;;;6167058;28;20470;-62
2022/09/09 03:36:07;;;;;;;1.50;1.40;;;16.90;99.90;;;;;;6171476;28;20561;-62
2022/09/09 03:39:10;;;;;;;3.47;1.10;;;16.90;99.90;;;;;;6180803;28;20497;-62
2022/09/09 03:42:18;;;;;;;1.57;0.80;;;16.80;99.90;;;;;;6180875;28;20474;-62
2022/09/09 03:45:21;;;;;;;2.47;1.17;;;16.70;99.90;;;;;;6180709;28;20558;-62
2022/09/09 03:48:27;;;;;;;4.53;1.20;;;16.70;99.90;;;;;;6181051;28;20470;-62
2022/09/09 03:51:31;;;;;;;0.97;0.90;;;16.70;99.90;;;;;;6181152;28;20484;-62
2022/09/09 03:54:34;;;;;;;1.93;1.27;;;16.70;99.90;;;;;;6163530;28;20473;-63
2022/09/09 03:57:38;;;;;;;1.77;1.10;;;16.60;99.90;;;;;;6165714;28;20514;-63
2022/09/09 04:00:44;;;;;;;2.10;1.60;;;16.50;99.90;;;;;;6169573;28;20474;-63
2022/09/09 04:03:50;;;;;;;4.23;1.80;;;16.50;99.90;;;;;;6169192;28;20478;-62
2022/09/09 04:06:53;;;;;;;1.70;1.60;;;16.50;99.90;;;;;;6165492;28;20513;-62
2022/09/09 04:09:56;;;;;;;2.40;1.70;;;16.50;99.90;;;;;;6165592;28;20453;-62
2022/09/09 04:13:00;;;;;;;1.87;1.77;;;16.50;99.90;;;;;;6168856;28;20446;-62
2022/09/09 04:16:04;;;;;;;4.20;2.40;;;16.40;99.90;;;;;;6164537;28;20858;-63
2022/09/09 04:19:09;;;;;;;2.47;2.27;;;16.40;99.90;;;;;;6162725;28;20618;-63
2022/09/09 04:22:12;;;;;;;4.80;2.27;;;16.40;99.90;;;;;;6164054;28;20947;-63
2022/09/09 04:25:15;;;;;;;2.53;2.20;;;16.40;99.90;;;;;;6157607;28;20482;-62
2022/09/09 04:28:19;;;;;;;2.80;2.43;;;16.40;99.90;;;;;;6156369;29;20537;-62
2022/09/09 04:31:24;;;;;;;4.57;2.90;;;16.40;99.90;;;;;;6156212;28;20495;-62
2022/09/09 04:34:29;;;;;;;3.70;2.67;;;16.40;99.90;;;;;;6156212;28;20609;-62
2022/09/09 04:37:32;;;;;;;3.97;2.10;;;16.50;99.90;;;;;;6155083;28;20489;-62
2022/09/09 04:40:36;;;;;;;2.07;1.97;;;16.40;99.90;;;;;;6155807;29;20483;-62
2022/09/09 04:43:39;;;;;;;5.90;2.40;;;16.40;99.90;;;;;;6155407;28;20494;-62
2022/09/09 04:46:42;;;;;;;3.50;2.00;;;16.40;99.90;;;;;;6155631;29;20475;-62
2022/09/09 04:49:47;;;;;;;2.50;2.30;;;16.40;99.90;;;;;;6155556;29;20797;-62
2022/09/09 04:52:50;;;;;;;2.33;2.13;;;16.40;99.90;;;;;;6155308;29;20557;-62
2022/09/09 04:55:54;;;;;;;2.27;1.83;;;16.50;99.90;;;;;;6228794;23;20952;-62
2022/09/09 04:58:57;;;;;;;2.30;2.10;;;16.50;99.90;;;;;;6227331;28;20505;-62
2022/09/09 05:02:00;;;;;;;2.93;1.87;;;16.50;99.90;;;;;;6227713;28;20472;-62
2022/09/09 05:05:06;;;;;;;1.60;1.43;;;16.50;99.90;;;;;;6227288;28;20880;-62
2022/09/09 05:08:10;;;;;;;2.33;1.60;;;16.50;99.90;;;;;;6227457;28;20821;-62
2022/09/09 05:11:21;;;;;;;1.60;1.50;;;16.50;99.90;;;;;;6227283;28;20503;-62
2022/09/09 05:14:24;;;;;;;4.13;1.53;;;16.50;99.90;;;;;;6227582;28;20554;-62
2022/09/09 05:17:27;;;;;;;1.93;1.63;;;16.50;99.90;;;;;;6227203;28;20487;-62
2022/09/09 05:20:32;;;;;;;2.10;2.00;;;16.50;99.90;;;;;;6227285;28;20476;-63
2022/09/09 05:23:36;;;;;;;2.23;2.03;;;16.60;99.90;;;;;;6226880;28;20488;-63
2022/09/09 05:26:39;;;;;;;10.50;2.30;;;16.50;99.90;;;;;;6227258;28;20597;-63
2022/09/09 05:29:44;;;;;;;1.97;1.80;;;16.60;99.90;;;;;;6226726;28;20561;-62
2022/09/09 05:32:48;;;;;;;4.83;2.33;;;16.70;99.90;;;;;;6226979;28;20486;-62
2022/09/09 05:35:58;;;;;;;2.43;1.80;;;16.80;99.90;;;;;;6226532;28;20488;-62
2022/09/09 05:39:01;;;;;;;2.70;2.10;;;16.90;99.90;;;;;;6226957;28;20480;-62
2022/09/09 05:42:05;;;;;;;3.47;1.70;;;17.00;99.90;;;;;;6226555;28;20825;-63
2022/09/09 05:45:09;;;;;;;2.40;2.20;;;17.10;99.90;;;;;;6226588;28;20599;-63
2022/09/09 05:48:12;;;;;;;2.60;2.40;;;17.10;99.90;;;;;;6226565;28;20476;-63
2022/09/09 05:51:18;;;;;;;2.47;2.27;;;17.20;99.90;;;;;;6226715;28;20480;-62
2022/09/09 05:54:21;;;;;;;2.33;2.23;;;17.30;99.90;;;;;;6228008;28;20491;-61
2022/09/09 05:57:25;;;;;;;2.83;2.13;;;17.40;99.90;;;;;;6228882;28;20479;-62
2022/09/09 06:00:31;;;;;;;2.63;2.10;;;17.50;99.90;;;;;;6226279;28;20483;-61
2022/09/09 06:03:36;;;;;;;2.90;2.43;;;17.70;99.90;;;;;;6216951;28;20480;-61
2022/09/09 06:06:41;;;;;;;3.97;2.80;;;17.90;99.90;;;;;;6224961;28;20472;-61
2022/09/09 06:09:44;;;;;;;10.30;2.87;;;18.10;99.90;;;;;;6225382;28;20471;-62
2022/09/09 06:12:48;;;;;;;3.33;3.00;;;18.20;99.90;;;;;;6225456;28;20233;-63
2022/09/09 06:15:51;;;;;;;3.53;3.20;;;18.30;99.90;;;;;;6243711;28;20232;-63
2022/09/09 06:18:56;;;;;;;2.77;2.57;;;18.40;99.90;;;;;;6250333;28;20220;-63
2022/09/09 06:22:00;;;;;;;2.93;2.70;;;18.40;99.90;;;;;;6250786;28;20205;-63
2022/09/09 06:25:04;;;;;;;3.50;2.80;;;18.50;99.90;;;;;;6250646;28;20254;-64
2022/09/09 06:28:08;;;;;;;3.43;2.80;;;18.70;99.90;;;;;;6252471;28;20547;-64
2022/09/09 06:31:12;;;;;;;2.97;2.60;;;19.00;99.90;;;;;;6252527;28;20734;-64
2022/09/09 06:34:16;;;;;;;3.90;2.80;;;19.70;99.90;;;;;;6250290;28;20232;-64
2022/09/09 06:37:20;;;;;;;4.67;2.77;;;20.40;99.90;;;;;;6250531;28;20290;-63
2022/09/09 06:40:23;;;;;;;2.83;2.50;;;20.80;99.90;;;;;;6249927;28;20302;-63
2022/09/09 06:43:27;;;;;;;3.67;2.53;;;21.90;99.90;;;;;;6251060;28;20333;-63
2022/09/09 06:46:32;;;;;;;4.83;3.20;;;23.80;96.80;;;;;;6251831;28;20726;-64
2022/09/09 06:49:36;;;;;;;7.77;4.00;;;24.80;93.80;;;;;;6251118;28;20624;-65
2022/09/09 06:52:40;;;;;;;2.90;2.70;;;26.00;90.50;;;;;;6250279;28;20633;-64
2022/09/09 06:55:44;;;;;;;7.27;3.60;;;26.90;83.70;;;;;;6249659;28;20239;-63
2022/09/09 06:58:49;;;;;;;3.40;3.10;;;26.30;80.80;;;;;;6250277;28;20244;-64
2022/09/09 07:01:54;;;;;;;3.00;2.70;;;25.40;81.90;;;;;;6255347;28;20299;-63
2022/09/09 07:04:58;;;;;;;3.50;3.20;;;24.60;83.80;;;;;;6248950;28;20374;-64
2022/09/09 07:08:03;;;;;;;3.80;2.60;;;23.90;86.80;;;;;;6256786;28;20243;-64
2022/09/09 07:11:08;;;;;;;3.73;2.30;;;23.20;88.30;;;;;;6257926;28;20243;-64
2022/09/09 07:14:15;;;;;;;3.13;2.83;;;22.60;89.90;;;;;;6257150;28;20548;-64
2022/09/09 07:17:18;;;;;;;3.40;3.10;;;22.10;90.90;;;;;;6257457;28;20236;-64
2022/09/09 07:20:21;;;;;;;6.23;3.20;;;21.70;92.00;;;;;;6255802;28;20235;-63
2022/09/09 07:23:26;;;;;;;2.70;2.50;;;21.30;92.90;;;;;;6256357;28;20374;-64
2022/09/09 07:26:31;;;;;;;3.20;2.40;;;21.20;93.70;;;;;;6253916;28;20255;-64
2022/09/09 07:29:34;;;;;;;4.43;2.97;;;21.00;94.10;;;;;;6256213;28;20766;-62
2022/09/09 07:32:37;;;;;;;4.07;2.37;;;20.80;94.50;;;;;;6256518;28;20306;-62
2022/09/09 07:35:41;;;;;;;3.03;2.77;;;20.70;96.30;;;;;;6261523;28;20243;-63
2022/09/09 07:38:47;;;;;;;3.13;2.60;;;20.70;96.40;;;;;;6258705;28;20236;-64
2022/09/09 07:41:51;;;;;;;4.10;3.67;;;20.60;96.80;;;;;;6260988;28;20667;-64
2022/09/09 07:44:54;;;;;;;4.53;3.20;;;20.50;96.70;;;;;;6260858;28;20228;-60
2022/09/09 07:47:57;;;;;;;6.93;3.67;;;20.50;96.90;;;;;;6259571;28;20228;-61
2022/09/09 07:51:07;;;;;;;7.13;4.30;;;20.50;97.70;;;;;;6259172;28;20232;-62
2022/09/09 07:54:13;;;;;;;10.83;3.87;;;20.50;98.50;;;;;;6259432;28;20301;-61
2022/09/09 07:57:16;;;;;;;5.67;3.97;;;20.50;99.00;;;;;;6233185;28;20279;-60
2022/09/09 08:00:22;;;;;;;5.40;3.77;;;20.50;99.20;;;;;;6249337;28;20311;-60
2022/09/09 08:03:25;;;;;;;4.60;4.20;;;20.50;99.80;;;;;;6257340;28;20232;-60
2022/09/09 08:06:29;;;;;;;5.50;3.90;;;20.50;99.90;;;;;;6253812;28;20756;-61
2022/09/09 08:09:33;;;;;;;5.40;3.93;;;20.50;99.90;;;;;;6241321;28;20673;-61
2022/09/09 08:12:36;;;;;;;3.33;3.13;;;20.50;99.90;;;;;;6234404;28;20261;-61
2022/09/09 08:15:40;;;;;;;4.83;4.00;;;20.60;99.60;;;;;;6232812;28;20706;-61
2022/09/09 08:18:44;;;;;;;4.63;4.23;;;20.50;98.80;;;;;;6253109;28;20229;-61
2022/09/09 08:21:48;;;;;;;4.43;4.07;;;20.40;98.30;;;;;;6251343;28;20247;-61
2022/09/09 08:24:53;;;;;;;5.13;3.10;;;20.40;98.20;;;;;;6228320;28;20231;-60
2022/09/09 08:27:56;;;;;;;3.63;2.80;;;20.40;98.50;;;;;;6245879;28;20232;-62
2022/09/09 08:31:07;;;;;;;2.87;2.67;;;20.50;98.70;;;;;;6252140;28;20262;-65
2022/09/09 08:34:10;;;;;;;3.20;2.60;;;20.60;98.80;;;;;;6248492;28;20228;-64
2022/09/09 08:37:13;;;;;;;3.67;2.87;;;20.70;98.40;;;;;;6252463;28;20229;-64
2022/09/09 08:40:23;;;;;;;5.40;3.07;;;20.70;98.20;;;;;;6252516;28;20240;-65
2022/09/09 08:43:29;;;;;;;8.20;2.80;;;20.70;98.10;;;;;;6252156;28;20672;-65
2022/09/09 08:46:42;;;;;;;4.07;3.07;;;20.60;98.30;;;;;;6241478;28;20222;-65
2022/09/09 08:50:02;;;;;;;6.53;3.30;;;20.70;98.80;;;;;;6247368;28;20239;-61
2022/09/09 08:53:12;;;;;;;6.03;3.33;;;20.70;98.80;;;;;;6246005;28;20239;-61
2022/09/09 08:56:19;;;;;;;3.90;3.60;;;20.70;98.90;;;;;;6235865;28;20228;-62
2022/09/09 08:59:23;;;;;;;3.83;3.53;;;20.70;98.70;;;;;;6252131;28;20259;-61
2022/09/09 09:02:32;;;;;;;3.40;3.10;;;20.70;98.90;;;;;;6245659;28;20241;-63
2022/09/09 09:05:42;;;;;;;4.10;3.70;;;20.90;98.80;;;;;;6227306;28;20318;-63
2022/09/09 09:08:52;;;;;;;3.60;3.30;;;21.20;98.30;;;;;;6247246;28;20232;-63
2022/09/09 09:12:00;;;;;;;3.63;3.10;;;21.70;97.50;;;;;;6247961;28;20236;-64
2022/09/09 09:15:10;;;;;;;4.97;4.40;;;22.30;96.40;;;;;;6241404;28;20228;-62
2022/09/09 09:18:15;;;;;;;6.83;5.10;;;22.70;95.40;;;;;;6242072;28;20239;-62
2022/09/09 09:21:25;;;;;;;8.33;6.30;;;22.90;94.10;;;;;;6249104;28;20237;-63
2022/09/09 09:24:42;;;;;;;5.87;5.40;;;23.10;93.80;;;;;;6249398;28;20232;-62
2022/09/09 09:27:54;;;;;;;5.20;2.73;;;23.40;92.70;;;;;;6248391;28;20660;-60
2022/09/09 09:31:02;;;;;;;4.80;2.70;;;27.20;90.30;;;;;;6246785;28;20199;-62
2022/09/09 09:34:06;;;;;;;4.10;2.83;;;31.50;67.60;;;;;;6247225;28;20238;-61
2022/09/09 09:37:19;;;;;;;5.78;2.60;;;32.30;58.10;;;;;;6246564;28;20513;-61
2022/09/09 09:40:24;;;;;;;3.47;3.28;;;31.50;56.60;;;;;;6246923;28;20224;-61
2022/09/09 09:43:30;;;;;;;2.92;2.72;;;31.40;56.10;;;;;;6241547;28;20224;-61
2022/09/09 09:46:34;;;;;;;5.60;3.63;;;31.00;56.70;;;;;;6244568;28;20280;-61
2022/09/09 09:49:37;;;;;;;2.77;2.57;;;30.30;57.60;;;;;;6248973;28;20261;-62
2022/09/09 09:52:44;;;;;;;3.93;2.33;;;29.60;59.00;;;;;;6247647;28;20226;-62
2022/09/09 09:55:54;;;;;;;4.40;2.90;;;28.80;60.40;;;;;;6233925;28;20228;-62
2022/09/09 09:58:59;;;;;;;3.73;2.40;;;28.30;61.10;;;;;;6240724;28;20235;-62
2022/09/09 10:02:20;;;;;;;3.60;3.00;;;27.80;61.90;;;;;;6238489;28;20925;-61
2022/09/09 10:05:25;;;;;;;3.53;2.30;;;27.50;63.10;;;;;;6240703;28;20223;-61
2022/09/09 10:08:30;;;;;;;2.47;2.27;;;27.70;62.80;;;;;;6239387;28;20238;-62
2022/09/09 10:11:45;;;;;;;2.83;2.50;;;28.30;62.40;;;;;;6235224;28;20236;-62
2022/09/09 10:14:58;;;;;;;2.30;2.10;;;29.00;60.30;;;;;;6237259;28;20244;-66
2022/09/09 10:18:14;;;;;;;2.30;2.10;;;29.60;58.60;;;;;;6236617;28;20235;-66
2022/09/09 10:21:31;;;;;;;4.20;2.90;;;29.90;57.20;;;;;;6238821;28;20235;-66
2022/09/09 10:25:05;;;;;;;2.97;2.50;;;30.10;57.30;;;;;;6238404;28;20220;-66
2022/09/09 10:28:30;;;;;;;10.50;7.90;;;29.80;56.00;;;;;;6238812;28;20215;-66
2022/09/09 10:31:46;;;;;;;2.90;2.57;;;29.40;57.10;;;;;;6238535;28;20227;-66
2022/09/09 10:34:57;;;;;;;2.40;2.20;;;29.00;57.60;;;;;;6238117;28;20235;-66
2022/09/09 10:38:25;;;;;;;2.57;2.10;;;28.80;58.90;;;;;;6239405;28;20243;-64
2022/09/09 10:41:43;;;;;;;3.30;2.37;;;29.00;58.30;;;;;;6232311;28;20239;-65
2022/09/09 10:45:01;;;;;;;4.80;2.00;;;29.20;56.70;;;;;;6236072;28;20236;-65
2022/09/09 10:48:30;;;;;;;3.23;2.10;;;29.10;56.60;;;;;;6227443;28;20576;-64
2022/09/09 10:51:40;;;;;;;5.00;2.60;;;29.20;56.70;;;;;;6232004;28;20239;-63
2022/09/09 10:54:57;;;;;;;2.20;2.00;;;28.90;56.50;;;;;;6237505;28;20301;-62
2022/09/09 10:58:04;;;;;;;5.10;3.83;;;28.20;57.00;;;;;;6241548;28;20221;-62
2022/09/09 11:01:15;;;;;;;4.50;2.47;;;27.60;58.40;;;;;;6247270;28;20215;-62
2022/09/09 11:04:24;;;;;;;2.47;2.10;;;27.00;59.80;;;;;;6245552;28;20233;-62
2022/09/09 11:07:34;;;;;;;3.40;2.20;;;26.40;61.10;;;;;;6236480;28;20695;-62
2022/09/09 11:10:44;;;;;;;2.10;1.90;;;25.80;62.90;;;;;;6223922;28;20228;-62
2022/09/09 11:13:54;;;;;;;2.40;2.20;;;25.40;62.90;;;;;;6225258;28;20232;-62
2022/09/09 11:17:01;;;;;;;1.93;1.70;;;25.20;64.50;;;;;;6225089;28;20229;-63
2022/09/09 11:20:13;;;;;;;2.37;2.17;;;24.90;65.80;;;;;;6234877;28;20227;-65
2022/09/09 11:23:23;;;;;;;1.50;1.40;;;24.80;66.40;;;;;;6239372;28;20232;-65
2022/09/09 11:26:32;;;;;;;4.23;2.30;;;24.60;67.60;;;;;;6248640;28;20686;-66
2022/09/09 11:30:13;;;;;;;1.80;1.60;;;24.50;68.10;;;;;;6246418;28;20255;-66
2022/09/09 11:34:06;;;;;;;2.60;2.40;;;24.50;69.70;;;;;;6245649;28;20652;-65
2022/09/09 11:37:26;;;;;;;3.00;1.97;;;24.50;71.20;;;;;;6248622;28;20220;-65
2022/09/09 11:40:31;;;;;;;4.60;2.30;;;24.70;71.70;;;;;;6246526;28;20241;-64
2022/09/09 11:43:41;;;;;;;2.80;2.20;;;24.80;72.30;;;;;;6245825;28;20232;-64
2022/09/09 11:46:50;;;;;;;2.90;2.13;;;24.80;74.30;;;;;;6249413;28;20290;-64
2022/09/09 11:49:54;;;;;;;3.60;2.40;;;24.80;75.00;;;;;;6250948;28;20239;-65
2022/09/09 11:53:23;;;;;;;2.40;2.20;;;24.90;75.80;;;;;;6253094;28;20236;-64
2022/09/09 11:56:30;;;;;;;6.07;2.63;;;25.00;76.20;;;;;;6253375;28;20683;-65
2022/09/09 11:59:35;;;;;;;2.40;2.20;;;25.10;75.50;;;;;;6252462;28;20224;-63
2022/09/09 12:02:49;;;;;;;2.70;2.27;;;25.20;75.80;;;;;;6252027;28;20742;-64
2022/09/09 12:05:53;;;;;;;2.80;2.60;;;25.30;75.10;;;;;;6252263;28;20228;-64
2022/09/09 12:09:07;;;;;;;2.13;1.93;;;25.30;74.10;;;;;;6252996;28;20235;-65
2022/09/09 12:12:29;;;;;;;2.57;1.90;;;25.40;74.90;;;;;;6253007;28;20298;-65
2022/09/09 12:15:32;;;;;;;1.97;1.70;;;25.40;73.70;;;;;;6253395;28;20248;-67
2022/09/09 12:18:39;;;;;;;2.63;2.10;;;25.20;73.00;;;;;;6252478;28;20246;-63
2022/09/09 12:21:49;;;;;;;3.40;1.80;;;25.10;73.30;;;;;;6248910;28;20231;-63
2022/09/09 12:25:04;;;;;;;2.23;1.70;;;25.00;74.10;;;;;;6251483;28;20235;-63
2022/09/09 12:28:16;;;;;;;1.70;1.60;;;24.90;73.20;;;;;;6227290;28;20221;-63
2022/09/09 12:31:25;;;;;;;2.73;2.50;;;24.70;73.90;;;;;;6246972;28;20307;-67
2022/09/09 12:34:41;;;;;;;3.10;1.90;;;24.50;74.00;;;;;;6252001;28;20691;-65
2022/09/09 12:37:49;;;;;;;3.27;1.80;;;24.40;75.40;;;;;;6252994;28;20229;-66
2022/09/09 12:40:58;;;;;;;4.77;2.20;;;24.50;76.30;;;;;;6252364;28;20653;-66
2022/09/09 12:44:06;;;;;;;3.20;1.70;;;24.50;75.60;;;;;;6252958;28;20236;-66
2022/09/09 12:47:13;;;;;;;3.33;1.57;;;24.40;75.20;;;;;;6250332;28;20232;-63
2022/09/09 12:50:19;;;;;;;1.63;1.53;;;24.40;75.00;;;;;;6249496;28;20232;-64
2022/09/09 12:53:26;;;;;;;2.70;1.40;;;24.30;74.10;;;;;;6251084;28;20236;-64
2022/09/09 12:56:33;;;;;;;2.20;1.60;;;24.30;73.70;;;;;;6252331;28;20236;-64
2022/09/09 12:59:39;;;;;;;1.90;1.63;;;24.10;72.90;;;;;;6251437;28;20528;-64
2022/09/09 13:02:51;;;;;;;2.30;1.50;;;24.10;74.80;;;;;;6251559;28;20240;-64
2022/09/09 13:06:00;;;;;;;1.60;1.50;;;24.00;75.00;;;;;;6251821;28;20236;-64
2022/09/09 13:09:03;;;;;;;1.30;1.20;;;23.90;75.00;;;;;;6248608;28;20233;-63
2022/09/09 13:12:15;;;;;;;4.57;1.40;;;23.90;76.40;;;;;;6251484;28;20225;-63
2022/09/09 13:15:23;;;;;;;2.27;2.07;;;23.70;76.80;;;;;;6251809;28;20236;-63
2022/09/09 13:18:30;;;;;;;2.20;1.60;;;23.60;77.70;;;;;;6251559;28;20263;-63
2022/09/09 13:21:34;;;;;;;1.80;1.70;;;23.60;79.10;;;;;;6251405;28;20266;-63
2022/09/09 13:24:37;;;;;;;6.67;2.03;;;23.50;79.50;;;;;;6251173;28;20243;-63
2022/09/09 13:27:52;;;;;;;1.40;1.30;;;23.30;80.10;;;;;;6251517;28;20233;-63
2022/09/09 13:31:00;;;;;;;1.40;1.30;;;23.30;81.00;;;;;;6251131;28;20290;-63
2022/09/09 13:34:12;;;;;;;1.73;1.63;;;23.30;81.30;;;;;;6251127;28;20225;-64
2022/09/09 13:37:24;;;;;;;1.40;1.20;;;23.50;81.40;;;;;;6251029;28;20225;-63
2022/09/09 13:40:27;;;;;;;1.70;1.60;;;23.50;81.70;;;;;;6250732;28;20252;-63
2022/09/09 13:43:35;;;;;;;2.60;1.50;;;23.40;82.00;;;;;;6251112;28;20274;-63
2022/09/09 13:46:41;;;;;;;3.70;1.77;;;23.20;82.30;;;;;;6249871;28;20228;-67
2022/09/09 13:49:45;;;;;;;2.27;1.50;;;23.20;82.10;;;;;;6248931;28;20240;-68
2022/09/09 13:52:49;;;;;;;2.47;1.30;;;23.10;81.60;;;;;;6248960;28;20243;-68
2022/09/09 13:55:53;;;;;;;2.33;1.60;;;22.90;82.90;;;;;;6248367;28;20248;-68
2022/09/09 13:58:58;;;;;;;4.20;2.10;;;22.80;83.90;;;;;;6248369;28;20765;-67
2022/09/09 14:02:01;;;;;;;2.50;2.03;;;22.70;84.90;;;;;;6248964;28;20232;-67
2022/09/09 14:05:05;;;;;;;1.60;1.50;;;22.60;85.60;;;;;;6250109;28;20243;-65
2022/09/09 14:08:13;;;;;;;3.57;1.80;;;22.50;86.70;;;;;;6250434;28;20339;-67
2022/09/09 14:11:18;;;;;;;1.90;1.80;;;22.40;87.90;;;;;;6249614;28;20607;-67
2022/09/09 14:14:22;;;;;;;2.67;1.83;;;22.50;89.80;;;;;;6250422;28;20252;-64
2022/09/09 14:17:29;;;;;;;2.43;2.23;;;22.50;90.40;;;;;;6250344;28;20652;-64
2022/09/09 14:20:32;;;;;;;3.50;2.10;;;22.50;90.80;;;;;;6249369;28;20267;-63
2022/09/09 14:23:35;;;;;;;2.70;2.10;;;22.40;91.70;;;;;;6235299;28;20233;-63
2022/09/09 14:26:39;;;;;;;3.60;2.63;;;22.40;92.40;;;;;;6248951;28;20239;-64
2022/09/09 14:29:44;;;;;;;2.93;2.23;;;22.40;93.40;;;;;;6248857;28;20614;-64
2022/09/09 14:32:47;;;;;;;4.00;2.60;;;22.50;93.60;;;;;;6248872;28;20897;-64
2022/09/09 14:35:56;;;;;;;3.03;2.37;;;22.50;93.70;;;;;;6235164;28;20301;-64
2022/09/09 14:39:00;;;;;;;4.30;2.50;;;22.50;93.90;;;;;;6249007;28;20310;-65
2022/09/09 14:42:03;;;;;;;3.20;2.90;;;22.50;94.30;;;;;;6248592;28;20236;-64
2022/09/09 14:45:09;;;;;;;2.70;2.50;;;22.30;94.80;;;;;;6248739;28;20232;-64
2022/09/09 14:48:12;;;;;;;3.03;2.73;;;22.20;95.20;;;;;;6248738;28;20244;-64
2022/09/09 14:51:19;;;;;;;2.73;2.53;;;22.20;95.60;;;;;;6224462;28;20233;-63
2022/09/09 14:54:22;;;;;;;3.30;2.60;;;22.00;96.10;;;;;;6223821;28;20245;-66
2022/09/09 14:57:25;;;;;;;2.53;2.33;;;21.90;96.50;;;;;;6224183;28;20240;-62
2022/09/09 15:00:30;;;;;;;3.70;2.40;;;21.80;96.80;;;;;;6234358;28;20286;-64
2022/09/09 15:03:34;;;;;;;3.60;2.33;;;21.70;97.30;;;;;;6234273;28;20239;-64
2022/09/09 15:06:38;;;;;;;4.60;2.70;;;21.70;97.60;;;;;;6240544;28;20228;-64
2022/09/09 15:09:42;;;;;;;2.87;2.67;;;21.70;97.50;;;;;;6248448;28;20228;-62
2022/09/09 15:12:45;;;;;;;4.27;3.20;;;21.70;97.50;;;;;;6248848;28;20290;-61
2022/09/09 15:15:50;;;;;;;4.60;2.97;;;21.70;98.60;;;;;;6249262;28;20274;-60
2022/09/09 15:18:55;;;;;;;3.63;3.20;;;21.70;99.40;;;;;;6249106;28;20232;-60
2022/09/09 15:21:59;;;;;;;4.20;3.20;;;21.70;99.90;;;;;;6250321;28;20274;-60
2022/09/09 15:25:02;;;;;;;3.23;2.93;;;21.70;99.90;;;;;;6254394;28;20220;-61
2022/09/09 15:28:05;;;;;;;3.40;3.10;;;21.70;99.90;;;;;;6254492;28;20294;-60
2022/09/09 15:31:14;;;;;;;4.40;4.00;;;21.60;99.90;;;;;;6254048;28;20717;-60
2022/09/09 15:34:17;;;;;;;4.93;3.30;;;21.60;99.90;;;;;;6254022;28;20228;-60
2022/09/09 15:37:20;;;;;;;2.70;2.50;;;21.70;99.90;;;;;;6244812;28;20228;-60
2022/09/09 15:40:23;;;;;;;3.60;2.67;;;21.70;99.90;;;;;;6253623;28;20534;-60
2022/09/09 15:43:26;;;;;;;2.50;2.23;;;21.60;99.90;;;;;;6254235;28;20243;-61
2022/09/09 15:46:33;;;;;;;3.07;2.80;;;21.50;99.90;;;;;;6253855;28;20235;-60
2022/09/09 15:49:37;;;;;;;3.87;2.77;;;21.60;99.90;;;;;;6254249;28;20225;-60
2022/09/09 15:52:40;;;;;;;2.70;2.50;;;21.60;99.90;;;;;;6253661;28;20706;-60
2022/09/09 15:55:43;;;;;;;2.93;2.73;;;21.60;99.90;;;;;;6253742;28;20286;-63
2022/09/09 15:58:47;;;;;;;4.37;2.57;;;21.60;99.90;;;;;;6253515;28;20302;-63
2022/09/09 16:01:51;;;;;;;2.63;2.43;;;21.60;99.90;;;;;;6253420;28;20247;-61
2022/09/09 16:04:55;;;;;;;2.90;2.70;;;21.60;99.90;;;;;;6253099;28;20239;-60
2022/09/09 16:07:58;;;;;;;3.00;2.70;;;21.50;99.90;;;;;;6252666;28;20290;-60
2022/09/09 16:11:09;;;;;;;4.10;2.70;;;21.50;99.90;;;;;;6250471;28;20302;-60
2022/09/09 16:14:15;;;;;;;3.00;2.13;;;21.50;99.90;;;;;;6252641;28;20233;-60